sensor_id;sensor_type;location;lat;lon;timestamp;pressure;altitude;pressure_sealevel;temperature
70969;BMP280;58630;43.022;25.100;2023-05-24T00:00:50;;;;22.90
70969;BMP280;58630;43.022;25.100;2023-05-24T00:03:17;;;;22.90
70969;BMP280;58630;43.022;25.100;2023-05-24T00:05:43;;;;22.80
70969;BMP280;58630;43.022;25.100;2023-05-24T00:08:11;;;;22.80
70969;BMP280;58630;43.022;25.100;2023-05-24T00:10:37;;;;22.80
70969;BMP280;58630;43.022;25.100;2023-05-24T00:13:02;;;;22.80
70969;BMP280;58630;43.022;25.100;2023-05-24T00:15:28;;;;22.70
70969;BMP280;58630;43.022;25.100;2023-05-24T00:17:53;;;;22.70
70969;BMP280;58630;43.022;25.100;2023-05-24T00:20:19;;;;22.70
70969;BMP280;58630;43.022;25.100;2023-05-24T00:22:44;;;;22.70
70969;BMP280;58630;43.022;25.100;2023-05-24T00:25:10;;;;22.60
70969;BMP280;58630;43.022;25.100;2023-05-24T00:27:36;;;;22.60
70969;BMP280;58630;43.022;25.100;2023-05-24T00:30:02;;;;22.60
70969;BMP280;58630;43.022;25.100;2023-05-24T00:32:27;;;;22.60
70969;BMP280;58630;43.022;25.100;2023-05-24T00:34:53;;;;22.60
70969;BMP280;58630;43.022;25.100;2023-05-24T00:37:19;;;;22.50
70969;BMP280;58630;43.022;25.100;2023-05-24T00:39:44;;;;22.50
70969;BMP280;58630;43.022;25.100;2023-05-24T00:42:10;;;;22.50
70969;BMP280;58630;43.022;25.100;2023-05-24T00:44:35;;;;22.50
70969;BMP280;58630;43.022;25.100;2023-05-24T00:47:01;;;;22.40
70969;BMP280;58630;43.022;25.100;2023-05-24T00:49:26;;;;22.40
70969;BMP280;58630;43.022;25.100;2023-05-24T00:51:52;;;;22.40
70969;BMP280;58630;43.022;25.100;2023-05-24T00:54:18;;;;22.40
70969;BMP280;58630;43.022;25.100;2023-05-24T00:56:45;;;;22.40
70969;BMP280;58630;43.022;25.100;2023-05-24T00:59:10;;;;22.40
70969;BMP280;58630;43.022;25.100;2023-05-24T01:01:36;;;;22.30
70969;BMP280;58630;43.022;25.100;2023-05-24T01:04:02;;;;22.30
70969;BMP280;58630;43.022;25.100;2023-05-24T01:06:28;;;;22.30
70969;BMP280;58630;43.022;25.100;2023-05-24T01:09:01;;;;22.30
70969;BMP280;58630;43.022;25.100;2023-05-24T01:11:42;;;;22.20
70969;BMP280;58630;43.022;25.100;2023-05-24T01:14:28;;;;22.20
70969;BMP280;58630;43.022;25.100;2023-05-24T01:17:03;;;;22.20
70969;BMP280;58630;43.022;25.100;2023-05-24T01:27:31;;;;22.10
70969;BMP280;58630;43.022;25.100;2023-05-24T01:29:58;;;;22.10
70969;BMP280;58630;43.022;25.100;2023-05-24T01:32:24;;;;22.10
70969;BMP280;58630;43.022;25.100;2023-05-24T01:34:50;;;;22.10
70969;BMP280;58630;43.022;25.100;2023-05-24T01:37:15;;;;22.10
70969;BMP280;58630;43.022;25.100;2023-05-24T01:39:41;;;;22.00
70969;BMP280;58630;43.022;25.100;2023-05-24T01:44:51;;;;22.00
70969;BMP280;58630;43.022;25.100;2023-05-24T01:49:56;;;;21.90
70969;BMP280;58630;43.022;25.100;2023-05-24T01:52:26;;;;21.90
70969;BMP280;58630;43.022;25.100;2023-05-24T01:54:53;;;;21.90
70969;BMP280;58630;43.022;25.100;2023-05-24T01:57:21;;;;21.90
70969;BMP280;58630;43.022;25.100;2023-05-24T01:59:47;;;;21.90
70969;BMP280;58630;43.022;25.100;2023-05-24T02:02:13;;;;21.90
70969;BMP280;58630;43.022;25.100;2023-05-24T02:04:39;;;;21.90
70969;BMP280;58630;43.022;25.100;2023-05-24T02:07:05;;;;21.80
70969;BMP280;58630;43.022;25.100;2023-05-24T02:09:30;;;;21.80
70969;BMP280;58630;43.022;25.100;2023-05-24T02:11:56;;;;21.80
70969;BMP280;58630;43.022;25.100;2023-05-24T02:14:21;;;;21.80
70969;BMP280;58630;43.022;25.100;2023-05-24T02:16:48;;;;21.80
70969;BMP280;58630;43.022;25.100;2023-05-24T02:19:15;;;;21.80
70969;BMP280;58630;43.022;25.100;2023-05-24T02:21:41;;;;21.70
70969;BMP280;58630;43.022;25.100;2023-05-24T02:24:07;;;;21.70
70969;BMP280;58630;43.022;25.100;2023-05-24T02:26:38;;;;21.70
70969;BMP280;58630;43.022;25.100;2023-05-24T02:29:03;;;;21.70
70969;BMP280;58630;43.022;25.100;2023-05-24T02:31:29;;;;21.70
70969;BMP280;58630;43.022;25.100;2023-05-24T02:33:55;;;;21.70
70969;BMP280;58630;43.022;25.100;2023-05-24T02:36:21;;;;21.60
70969;BMP280;58630;43.022;25.100;2023-05-24T02:38:48;;;;21.60
70969;BMP280;58630;43.022;25.100;2023-05-24T02:41:13;;;;21.60
70969;BMP280;58630;43.022;25.100;2023-05-24T02:43:42;;;;21.60
70969;BMP280;58630;43.022;25.100;2023-05-24T02:46:08;;;;21.60
70969;BMP280;58630;43.022;25.100;2023-05-24T02:48:34;;;;21.50
70969;BMP280;58630;43.022;25.100;2023-05-24T02:51:01;;;;21.50
70969;BMP280;58630;43.022;25.100;2023-05-24T02:53:30;;;;21.50
70969;BMP280;58630;43.022;25.100;2023-05-24T02:55:56;;;;21.50
70969;BMP280;58630;43.022;25.100;2023-05-24T02:58:22;;;;21.50
70969;BMP280;58630;43.022;25.100;2023-05-24T03:00:48;;;;21.50
70969;BMP280;58630;43.022;25.100;2023-05-24T03:03:14;;;;21.40
70969;BMP280;58630;43.022;25.100;2023-05-24T03:05:40;;;;21.40
70969;BMP280;58630;43.022;25.100;2023-05-24T03:08:05;;;;21.40
70969;BMP280;58630;43.022;25.100;2023-05-24T03:10:31;;;;21.40
70969;BMP280;58630;43.022;25.100;2023-05-24T03:12:56;;;;21.40
70969;BMP280;58630;43.022;25.100;2023-05-24T03:15:22;;;;21.40
70969;BMP280;58630;43.022;25.100;2023-05-24T03:17:48;;;;21.30
70969;BMP280;58630;43.022;25.100;2023-05-24T03:20:13;;;;21.30
70969;BMP280;58630;43.022;25.100;2023-05-24T03:22:40;;;;21.30
70969;BMP280;58630;43.022;25.100;2023-05-24T03:25:06;;;;21.30
70969;BMP280;58630;43.022;25.100;2023-05-24T03:27:33;;;;21.30
70969;BMP280;58630;43.022;25.100;2023-05-24T03:29:58;;;;21.30
70969;BMP280;58630;43.022;25.100;2023-05-24T03:32:24;;;;21.20
70969;BMP280;58630;43.022;25.100;2023-05-24T03:34:49;;;;21.20
70969;BMP280;58630;43.022;25.100;2023-05-24T03:37:15;;;;21.20
70969;BMP280;58630;43.022;25.100;2023-05-24T03:39:40;;;;21.20
70969;BMP280;58630;43.022;25.100;2023-05-24T03:42:06;;;;21.20
70969;BMP280;58630;43.022;25.100;2023-05-24T03:44:31;;;;21.20
70969;BMP280;58630;43.022;25.100;2023-05-24T03:46:57;;;;21.10
70969;BMP280;58630;43.022;25.100;2023-05-24T03:49:22;;;;21.10
70969;BMP280;58630;43.022;25.100;2023-05-24T03:51:48;;;;21.10
70969;BMP280;58630;43.022;25.100;2023-05-24T03:54:13;;;;21.10
70969;BMP280;58630;43.022;25.100;2023-05-24T03:56:39;;;;21.10
70969;BMP280;58630;43.022;25.100;2023-05-24T03:59:05;;;;21.10
70969;BMP280;58630;43.022;25.100;2023-05-24T04:01:30;;;;21.10
70969;BMP280;58630;43.022;25.100;2023-05-24T04:03:56;;;;21.10
70969;BMP280;58630;43.022;25.100;2023-05-24T04:06:22;;;;21.10
70969;BMP280;58630;43.022;25.100;2023-05-24T04:08:57;;;;21.00
70969;BMP280;58630;43.022;25.100;2023-05-24T04:11:23;;;;21.00
70969;BMP280;58630;43.022;25.100;2023-05-24T04:13:52;;;;21.00
70969;BMP280;58630;43.022;25.100;2023-05-24T04:16:20;;;;21.00
70969;BMP280;58630;43.022;25.100;2023-05-24T04:18:49;;;;21.00
70969;BMP280;58630;43.022;25.100;2023-05-24T04:21:14;;;;21.00
70969;BMP280;58630;43.022;25.100;2023-05-24T04:23:40;;;;21.00
70969;BMP280;58630;43.022;25.100;2023-05-24T04:26:06;;;;21.00
70969;BMP280;58630;43.022;25.100;2023-05-24T04:28:32;;;;21.00
70969;BMP280;58630;43.022;25.100;2023-05-24T04:30:58;;;;20.90
70969;BMP280;58630;43.022;25.100;2023-05-24T04:33:23;;;;21.00
70969;BMP280;58630;43.022;25.100;2023-05-24T04:35:49;;;;20.90
70969;BMP280;58630;43.022;25.100;2023-05-24T04:38:15;;;;20.90
70969;BMP280;58630;43.022;25.100;2023-05-24T04:40:40;;;;20.90
70969;BMP280;58630;43.022;25.100;2023-05-24T04:43:06;;;;20.90
70969;BMP280;58630;43.022;25.100;2023-05-24T04:45:33;;;;20.90
70969;BMP280;58630;43.022;25.100;2023-05-24T04:47:58;;;;20.90
70969;BMP280;58630;43.022;25.100;2023-05-24T04:50:24;;;;20.90
70969;BMP280;58630;43.022;25.100;2023-05-24T04:52:50;;;;20.90
70969;BMP280;58630;43.022;25.100;2023-05-24T04:55:15;;;;20.90
70969;BMP280;58630;43.022;25.100;2023-05-24T04:57:41;;;;20.90
70969;BMP280;58630;43.022;25.100;2023-05-24T05:00:06;;;;20.90
70969;BMP280;58630;43.022;25.100;2023-05-24T05:02:32;;;;20.90
70969;BMP280;58630;43.022;25.100;2023-05-24T05:04:58;;;;20.80
70969;BMP280;58630;43.022;25.100;2023-05-24T05:07:23;;;;20.80
70969;BMP280;58630;43.022;25.100;2023-05-24T05:09:49;;;;20.90
70969;BMP280;58630;43.022;25.100;2023-05-24T05:12:14;;;;20.80
70969;BMP280;58630;43.022;25.100;2023-05-24T05:14:40;;;;20.80
70969;BMP280;58630;43.022;25.100;2023-05-24T05:17:06;;;;20.80
70969;BMP280;58630;43.022;25.100;2023-05-24T05:19:31;;;;20.80
70969;BMP280;58630;43.022;25.100;2023-05-24T05:21:57;;;;20.80
70969;BMP280;58630;43.022;25.100;2023-05-24T05:24:22;;;;20.80
70969;BMP280;58630;43.022;25.100;2023-05-24T05:26:48;;;;20.80
70969;BMP280;58630;43.022;25.100;2023-05-24T05:29:14;;;;20.80
70969;BMP280;58630;43.022;25.100;2023-05-24T05:31:39;;;;20.80
70969;BMP280;58630;43.022;25.100;2023-05-24T05:34:05;;;;20.80
70969;BMP280;58630;43.022;25.100;2023-05-24T05:36:34;;;;20.80
70969;BMP280;58630;43.022;25.100;2023-05-24T05:39:05;;;;20.80
70969;BMP280;58630;43.022;25.100;2023-05-24T05:41:35;;;;20.80
70969;BMP280;58630;43.022;25.100;2023-05-24T05:44:01;;;;20.80
70969;BMP280;58630;43.022;25.100;2023-05-24T05:46:26;;;;20.80
70969;BMP280;58630;43.022;25.100;2023-05-24T05:48:52;;;;20.80
70969;BMP280;58630;43.022;25.100;2023-05-24T05:51:17;;;;20.80
70969;BMP280;58630;43.022;25.100;2023-05-24T05:53:43;;;;20.80
70969;BMP280;58630;43.022;25.100;2023-05-24T05:56:08;;;;20.80
70969;BMP280;58630;43.022;25.100;2023-05-24T05:58:34;;;;20.80
70969;BMP280;58630;43.022;25.100;2023-05-24T06:00:59;;;;20.80
70969;BMP280;58630;43.022;25.100;2023-05-24T06:03:25;;;;20.80
70969;BMP280;58630;43.022;25.100;2023-05-24T06:05:50;;;;20.80
70969;BMP280;58630;43.022;25.100;2023-05-24T06:08:16;;;;20.80
70969;BMP280;58630;43.022;25.100;2023-05-24T06:10:42;;;;20.80
70969;BMP280;58630;43.022;25.100;2023-05-24T06:13:07;;;;20.80
70969;BMP280;58630;43.022;25.100;2023-05-24T06:15:33;;;;20.80
70969;BMP280;58630;43.022;25.100;2023-05-24T06:18:01;;;;20.80
70969;BMP280;58630;43.022;25.100;2023-05-24T06:20:27;;;;20.80
70969;BMP280;58630;43.022;25.100;2023-05-24T06:22:52;;;;20.80
70969;BMP280;58630;43.022;25.100;2023-05-24T06:25:18;;;;20.80
70969;BMP280;58630;43.022;25.100;2023-05-24T06:27:45;;;;20.80
70969;BMP280;58630;43.022;25.100;2023-05-24T06:30:11;;;;20.90
70969;BMP280;58630;43.022;25.100;2023-05-24T06:32:37;;;;20.90
70969;BMP280;58630;43.022;25.100;2023-05-24T06:35:03;;;;20.90
70969;BMP280;58630;43.022;25.100;2023-05-24T06:37:28;;;;21.00
70969;BMP280;58630;43.022;25.100;2023-05-24T06:39:55;;;;21.00
70969;BMP280;58630;43.022;25.100;2023-05-24T06:42:21;;;;21.00
70969;BMP280;58630;43.022;25.100;2023-05-24T06:44:46;;;;21.00
70969;BMP280;58630;43.022;25.100;2023-05-24T06:47:12;;;;21.10
70969;BMP280;58630;43.022;25.100;2023-05-24T06:49:37;;;;21.00
70969;BMP280;58630;43.022;25.100;2023-05-24T06:52:03;;;;21.10
70969;BMP280;58630;43.022;25.100;2023-05-24T06:54:29;;;;21.10
70969;BMP280;58630;43.022;25.100;2023-05-24T06:56:55;;;;21.10
70969;BMP280;58630;43.022;25.100;2023-05-24T06:59:21;;;;21.10
70969;BMP280;58630;43.022;25.100;2023-05-24T07:01:47;;;;21.10
70969;BMP280;58630;43.022;25.100;2023-05-24T07:04:15;;;;21.10
70969;BMP280;58630;43.022;25.100;2023-05-24T07:06:41;;;;21.20
70969;BMP280;58630;43.022;25.100;2023-05-24T07:09:06;;;;21.20
70969;BMP280;58630;43.022;25.100;2023-05-24T07:11:33;;;;21.20
70969;BMP280;58630;43.022;25.100;2023-05-24T07:13:58;;;;21.20
70969;BMP280;58630;43.022;25.100;2023-05-24T07:16:24;;;;21.20
70969;BMP280;58630;43.022;25.100;2023-05-24T07:18:50;;;;21.20
70969;BMP280;58630;43.022;25.100;2023-05-24T07:21:15;;;;21.20
70969;BMP280;58630;43.022;25.100;2023-05-24T07:23:41;;;;21.20
70969;BMP280;58630;43.022;25.100;2023-05-24T07:26:06;;;;21.30
70969;BMP280;58630;43.022;25.100;2023-05-24T07:28:33;;;;21.30
70969;BMP280;58630;43.022;25.100;2023-05-24T07:31:02;;;;21.30
70969;BMP280;58630;43.022;25.100;2023-05-24T07:33:27;;;;21.30
70969;BMP280;58630;43.022;25.100;2023-05-24T07:35:53;;;;21.30
70969;BMP280;58630;43.022;25.100;2023-05-24T07:38:18;;;;21.30
70969;BMP280;58630;43.022;25.100;2023-05-24T07:40:44;;;;21.30
70969;BMP280;58630;43.022;25.100;2023-05-24T07:43:10;;;;21.30
70969;BMP280;58630;43.022;25.100;2023-05-24T07:45:35;;;;21.30
70969;BMP280;58630;43.022;25.100;2023-05-24T07:48:01;;;;21.30
70969;BMP280;58630;43.022;25.100;2023-05-24T07:50:27;;;;21.30
70969;BMP280;58630;43.022;25.100;2023-05-24T07:52:54;;;;21.30
70969;BMP280;58630;43.022;25.100;2023-05-24T07:55:20;;;;21.30
70969;BMP280;58630;43.022;25.100;2023-05-24T07:57:45;;;;21.30
70969;BMP280;58630;43.022;25.100;2023-05-24T08:00:12;;;;21.30
70969;BMP280;58630;43.022;25.100;2023-05-24T08:02:41;;;;21.30
70969;BMP280;58630;43.022;25.100;2023-05-24T08:05:07;;;;21.30
70969;BMP280;58630;43.022;25.100;2023-05-24T08:07:34;;;;21.30
70969;BMP280;58630;43.022;25.100;2023-05-24T08:10:00;;;;21.30
70969;BMP280;58630;43.022;25.100;2023-05-24T08:12:25;;;;21.30
70969;BMP280;58630;43.022;25.100;2023-05-24T08:14:54;;;;21.30
70969;BMP280;58630;43.022;25.100;2023-05-24T08:17:20;;;;21.30
70969;BMP280;58630;43.022;25.100;2023-05-24T08:19:46;;;;21.30
70969;BMP280;58630;43.022;25.100;2023-05-24T08:22:12;;;;21.30
70969;BMP280;58630;43.022;25.100;2023-05-24T08:24:38;;;;21.30
70969;BMP280;58630;43.022;25.100;2023-05-24T08:27:03;;;;21.30
70969;BMP280;58630;43.022;25.100;2023-05-24T08:29:29;;;;21.40
70969;BMP280;58630;43.022;25.100;2023-05-24T08:31:54;;;;21.40
70969;BMP280;58630;43.022;25.100;2023-05-24T08:34:20;;;;21.40
70969;BMP280;58630;43.022;25.100;2023-05-24T08:36:45;;;;21.40
70969;BMP280;58630;43.022;25.100;2023-05-24T08:39:11;;;;21.40
70969;BMP280;58630;43.022;25.100;2023-05-24T08:41:37;;;;21.40
70969;BMP280;58630;43.022;25.100;2023-05-24T08:44:06;;;;21.40
70969;BMP280;58630;43.022;25.100;2023-05-24T08:46:35;;;;21.40
70969;BMP280;58630;43.022;25.100;2023-05-24T08:49:01;;;;21.40
70969;BMP280;58630;43.022;25.100;2023-05-24T08:51:30;;;;21.40
70969;BMP280;58630;43.022;25.100;2023-05-24T08:53:59;;;;21.40
70969;BMP280;58630;43.022;25.100;2023-05-24T08:56:25;;;;21.40
70969;BMP280;58630;43.022;25.100;2023-05-24T08:58:54;;;;21.50
70969;BMP280;58630;43.022;25.100;2023-05-24T09:01:20;;;;21.50
70969;BMP280;58630;43.022;25.100;2023-05-24T09:03:48;;;;21.50
70969;BMP280;58630;43.022;25.100;2023-05-24T09:06:15;;;;21.50
70969;BMP280;58630;43.022;25.100;2023-05-24T09:08:41;;;;21.50
70969;BMP280;58630;43.022;25.100;2023-05-24T09:11:08;;;;21.50
70969;BMP280;58630;43.022;25.100;2023-05-24T09:13:34;;;;21.60
70969;BMP280;58630;43.022;25.100;2023-05-24T09:16:00;;;;21.60
70969;BMP280;58630;43.022;25.100;2023-05-24T09:18:26;;;;21.60
70969;BMP280;58630;43.022;25.100;2023-05-24T09:20:51;;;;21.60
70969;BMP280;58630;43.022;25.100;2023-05-24T09:23:17;;;;21.60
70969;BMP280;58630;43.022;25.100;2023-05-24T09:25:43;;;;21.60
70969;BMP280;58630;43.022;25.100;2023-05-24T09:28:08;;;;21.60
70969;BMP280;58630;43.022;25.100;2023-05-24T09:33:03;;;;21.60
70969;BMP280;58630;43.022;25.100;2023-05-24T09:35:31;;;;21.70
70969;BMP280;58630;43.022;25.100;2023-05-24T09:37:56;;;;21.90
70969;BMP280;58630;43.022;25.100;2023-05-24T09:40:24;;;;21.90
70969;BMP280;58630;43.022;25.100;2023-05-24T09:43:01;;;;21.90
70969;BMP280;58630;43.022;25.100;2023-05-24T09:45:26;;;;22.00
70969;BMP280;58630;43.022;25.100;2023-05-24T09:47:53;;;;22.00
70969;BMP280;58630;43.022;25.100;2023-05-24T09:50:18;;;;22.00
70969;BMP280;58630;43.022;25.100;2023-05-24T09:52:44;;;;22.10
70969;BMP280;58630;43.022;25.100;2023-05-24T09:55:12;;;;22.10
70969;BMP280;58630;43.022;25.100;2023-05-24T09:57:37;;;;22.10
70969;BMP280;58630;43.022;25.100;2023-05-24T10:00:06;;;;22.10
70969;BMP280;58630;43.022;25.100;2023-05-24T10:02:38;;;;22.20
70969;BMP280;58630;43.022;25.100;2023-05-24T10:05:04;;;;22.20
70969;BMP280;58630;43.022;25.100;2023-05-24T10:07:31;;;;22.30
70969;BMP280;58630;43.022;25.100;2023-05-24T10:09:57;;;;22.30
70969;BMP280;58630;43.022;25.100;2023-05-24T10:12:23;;;;22.40
70969;BMP280;58630;43.022;25.100;2023-05-24T10:14:49;;;;22.40
70969;BMP280;58630;43.022;25.100;2023-05-24T10:17:16;;;;22.40
70969;BMP280;58630;43.022;25.100;2023-05-24T10:19:41;;;;22.40
70969;BMP280;58630;43.022;25.100;2023-05-24T10:22:07;;;;22.40
70969;BMP280;58630;43.022;25.100;2023-05-24T10:24:42;;;;22.50
70969;BMP280;58630;43.022;25.100;2023-05-24T10:27:14;;;;22.50
70969;BMP280;58630;43.022;25.100;2023-05-24T10:32:19;;;;22.40
70969;BMP280;58630;43.022;25.100;2023-05-24T10:34:45;;;;22.50
70969;BMP280;58630;43.022;25.100;2023-05-24T10:37:11;;;;22.50
70969;BMP280;58630;43.022;25.100;2023-05-24T10:39:36;;;;22.50
70969;BMP280;58630;43.022;25.100;2023-05-24T10:42:03;;;;22.50
70969;BMP280;58630;43.022;25.100;2023-05-24T10:44:29;;;;22.50
70969;BMP280;58630;43.022;25.100;2023-05-24T10:47:13;;;;22.60
70969;BMP280;58630;43.022;25.100;2023-05-24T10:49:55;;;;22.60
70969;BMP280;58630;43.022;25.100;2023-05-24T10:52:32;;;;22.60
70969;BMP280;58630;43.022;25.100;2023-05-24T10:55:06;;;;22.60
70969;BMP280;58630;43.022;25.100;2023-05-24T10:57:35;;;;22.60
70969;BMP280;58630;43.022;25.100;2023-05-24T11:02:48;;;;22.60
70969;BMP280;58630;43.022;25.100;2023-05-24T11:05:13;;;;22.70
70969;BMP280;58630;43.022;25.100;2023-05-24T11:07:40;;;;22.70
70969;BMP280;58630;43.022;25.100;2023-05-24T11:10:13;;;;22.80
70969;BMP280;58630;43.022;25.100;2023-05-24T11:12:39;;;;22.80
70969;BMP280;58630;43.022;25.100;2023-05-24T11:15:07;;;;22.90
70969;BMP280;58630;43.022;25.100;2023-05-24T11:18:12;;;;23.00
70969;BMP280;58630;43.022;25.100;2023-05-24T11:20:19;;;;23.00
70969;BMP280;58630;43.022;25.100;2023-05-24T11:22:45;;;;23.10
70969;BMP280;58630;43.022;25.100;2023-05-24T11:25:10;;;;23.10
70969;BMP280;58630;43.022;25.100;2023-05-24T11:27:41;;;;23.10
70969;BMP280;58630;43.022;25.100;2023-05-24T11:30:07;;;;23.20
70969;BMP280;58630;43.022;25.100;2023-05-24T11:32:33;;;;23.20
70969;BMP280;58630;43.022;25.100;2023-05-24T11:34:58;;;;23.20
70969;BMP280;58630;43.022;25.100;2023-05-24T11:37:24;;;;23.20
70969;BMP280;58630;43.022;25.100;2023-05-24T11:39:50;;;;23.20
70969;BMP280;58630;43.022;25.100;2023-05-24T11:42:19;;;;23.30
70969;BMP280;58630;43.022;25.100;2023-05-24T11:44:46;;;;23.40
70969;BMP280;58630;43.022;25.100;2023-05-24T11:47:12;;;;23.40
70969;BMP280;58630;43.022;25.100;2023-05-24T11:49:38;;;;23.40
70969;BMP280;58630;43.022;25.100;2023-05-24T11:52:03;;;;23.50
70969;BMP280;58630;43.022;25.100;2023-05-24T11:54:29;;;;23.50
70969;BMP280;58630;43.022;25.100;2023-05-24T11:56:57;;;;23.60
70969;BMP280;58630;43.022;25.100;2023-05-24T11:59:23;;;;23.70
70969;BMP280;58630;43.022;25.100;2023-05-24T12:01:55;;;;23.60
70969;BMP280;58630;43.022;25.100;2023-05-24T12:04:22;;;;23.60
70969;BMP280;58630;43.022;25.100;2023-05-24T12:06:47;;;;23.80
70969;BMP280;58630;43.022;25.100;2023-05-24T12:09:13;;;;23.80
70969;BMP280;58630;43.022;25.100;2023-05-24T12:11:40;;;;24.00
70969;BMP280;58630;43.022;25.100;2023-05-24T12:14:15;;;;24.00
70969;BMP280;58630;43.022;25.100;2023-05-24T12:16:42;;;;24.10
70969;BMP280;58630;43.022;25.100;2023-05-24T12:19:07;;;;24.20
70969;BMP280;58630;43.022;25.100;2023-05-24T12:21:39;;;;24.30
70969;BMP280;58630;43.022;25.100;2023-05-24T12:24:11;;;;24.30
70969;BMP280;58630;43.022;25.100;2023-05-24T12:26:46;;;;24.30
70969;BMP280;58630;43.022;25.100;2023-05-24T12:29:12;;;;24.40
70969;BMP280;58630;43.022;25.100;2023-05-24T12:31:39;;;;24.50
70969;BMP280;58630;43.022;25.100;2023-05-24T12:34:05;;;;24.50
70969;BMP280;58630;43.022;25.100;2023-05-24T12:36:32;;;;24.50
70969;BMP280;58630;43.022;25.100;2023-05-24T12:38:58;;;;24.60
70969;BMP280;58630;43.022;25.100;2023-05-24T12:41:24;;;;24.70
70969;BMP280;58630;43.022;25.100;2023-05-24T12:43:50;;;;24.80
70969;BMP280;58630;43.022;25.100;2023-05-24T12:46:16;;;;24.90
70969;BMP280;58630;43.022;25.100;2023-05-24T12:48:42;;;;25.00
70969;BMP280;58630;43.022;25.100;2023-05-24T12:51:08;;;;25.10
70969;BMP280;58630;43.022;25.100;2023-05-24T12:53:34;;;;25.20
70969;BMP280;58630;43.022;25.100;2023-05-24T12:56:00;;;;25.20
70969;BMP280;58630;43.022;25.100;2023-05-24T12:58:26;;;;25.20
70969;BMP280;58630;43.022;25.100;2023-05-24T13:00:51;;;;25.30
70969;BMP280;58630;43.022;25.100;2023-05-24T13:03:18;;;;25.40
70969;BMP280;58630;43.022;25.100;2023-05-24T13:05:43;;;;25.50
70969;BMP280;58630;43.022;25.100;2023-05-24T13:08:10;;;;25.70
70969;BMP280;58630;43.022;25.100;2023-05-24T13:10:35;;;;25.80
70969;BMP280;58630;43.022;25.100;2023-05-24T13:13:01;;;;25.80
70969;BMP280;58630;43.022;25.100;2023-05-24T13:15:27;;;;25.80
70969;BMP280;58630;43.022;25.100;2023-05-24T13:17:52;;;;25.90
70969;BMP280;58630;43.022;25.100;2023-05-24T13:20:18;;;;26.00
70969;BMP280;58630;43.022;25.100;2023-05-24T13:22:46;;;;26.00
70969;BMP280;58630;43.022;25.100;2023-05-24T13:25:13;;;;26.10
70969;BMP280;58630;43.022;25.100;2023-05-24T13:27:38;;;;26.20
70969;BMP280;58630;43.022;25.100;2023-05-24T13:30:05;;;;26.30
70969;BMP280;58630;43.022;25.100;2023-05-24T13:32:31;;;;26.30
70969;BMP280;58630;43.022;25.100;2023-05-24T13:34:57;;;;26.40
70969;BMP280;58630;43.022;25.100;2023-05-24T13:37:23;;;;26.50
70969;BMP280;58630;43.022;25.100;2023-05-24T13:39:49;;;;26.70
70969;BMP280;58630;43.022;25.100;2023-05-24T13:42:14;;;;26.80
70969;BMP280;58630;43.022;25.100;2023-05-24T13:44:40;;;;26.80
70969;BMP280;58630;43.022;25.100;2023-05-24T13:47:06;;;;26.90
70969;BMP280;58630;43.022;25.100;2023-05-24T13:49:32;;;;26.90
70969;BMP280;58630;43.022;25.100;2023-05-24T13:51:58;;;;27.00
70969;BMP280;58630;43.022;25.100;2023-05-24T13:54:24;;;;27.10
70969;BMP280;58630;43.022;25.100;2023-05-24T13:56:50;;;;27.20
70969;BMP280;58630;43.022;25.100;2023-05-24T13:59:16;;;;27.00
70969;BMP280;58630;43.022;25.100;2023-05-24T14:01:41;;;;26.80
70969;BMP280;58630;43.022;25.100;2023-05-24T14:04:07;;;;26.80
70969;BMP280;58630;43.022;25.100;2023-05-24T14:06:33;;;;27.10
70969;BMP280;58630;43.022;25.100;2023-05-24T14:08:58;;;;26.90
70969;BMP280;58630;43.022;25.100;2023-05-24T14:11:24;;;;26.80
70969;BMP280;58630;43.022;25.100;2023-05-24T14:13:50;;;;26.90
70969;BMP280;58630;43.022;25.100;2023-05-24T14:16:16;;;;27.00
70969;BMP280;58630;43.022;25.100;2023-05-24T14:18:50;;;;27.10
70969;BMP280;58630;43.022;25.100;2023-05-24T14:21:19;;;;27.20
70969;BMP280;58630;43.022;25.100;2023-05-24T14:23:45;;;;27.00
70969;BMP280;58630;43.022;25.100;2023-05-24T14:26:11;;;;26.90
70969;BMP280;58630;43.022;25.100;2023-05-24T14:28:37;;;;26.80
70969;BMP280;58630;43.022;25.100;2023-05-24T14:31:02;;;;26.90
70969;BMP280;58630;43.022;25.100;2023-05-24T14:33:28;;;;27.00
70969;BMP280;58630;43.022;25.100;2023-05-24T14:35:53;;;;26.90
70969;BMP280;58630;43.022;25.100;2023-05-24T14:38:19;;;;26.90
70969;BMP280;58630;43.022;25.100;2023-05-24T14:40:44;;;;26.90
70969;BMP280;58630;43.022;25.100;2023-05-24T14:43:11;;;;26.90
70969;BMP280;58630;43.022;25.100;2023-05-24T14:45:37;;;;26.90
70969;BMP280;58630;43.022;25.100;2023-05-24T14:48:04;;;;26.80
70969;BMP280;58630;43.022;25.100;2023-05-24T14:50:29;;;;26.80
70969;BMP280;58630;43.022;25.100;2023-05-24T14:52:55;;;;26.90
70969;BMP280;58630;43.022;25.100;2023-05-24T14:55:20;;;;27.40
70969;BMP280;58630;43.022;25.100;2023-05-24T14:57:46;;;;27.50
70969;BMP280;58630;43.022;25.100;2023-05-24T15:00:12;;;;27.30
70969;BMP280;58630;43.022;25.100;2023-05-24T15:02:37;;;;27.30
70969;BMP280;58630;43.022;25.100;2023-05-24T15:05:03;;;;27.20
70969;BMP280;58630;43.022;25.100;2023-05-24T15:07:29;;;;27.10
70969;BMP280;58630;43.022;25.100;2023-05-24T15:09:55;;;;27.00
70969;BMP280;58630;43.022;25.100;2023-05-24T15:12:21;;;;27.00
70969;BMP280;58630;43.022;25.100;2023-05-24T15:14:46;;;;27.00
70969;BMP280;58630;43.022;25.100;2023-05-24T15:17:12;;;;27.20
70969;BMP280;58630;43.022;25.100;2023-05-24T15:19:37;;;;27.20
70969;BMP280;58630;43.022;25.100;2023-05-24T15:22:04;;;;27.30
70969;BMP280;58630;43.022;25.100;2023-05-24T15:24:30;;;;27.20
70969;BMP280;58630;43.022;25.100;2023-05-24T15:26:55;;;;27.30
70969;BMP280;58630;43.022;25.100;2023-05-24T15:29:21;;;;27.30
70969;BMP280;58630;43.022;25.100;2023-05-24T15:31:47;;;;27.30
70969;BMP280;58630;43.022;25.100;2023-05-24T15:34:12;;;;27.20
70969;BMP280;58630;43.022;25.100;2023-05-24T15:36:38;;;;27.20
70969;BMP280;58630;43.022;25.100;2023-05-24T15:39:05;;;;27.20
70969;BMP280;58630;43.022;25.100;2023-05-24T15:41:31;;;;27.20
70969;BMP280;58630;43.022;25.100;2023-05-24T15:43:56;;;;27.10
70969;BMP280;58630;43.022;25.100;2023-05-24T15:46:23;;;;27.10
70969;BMP280;58630;43.022;25.100;2023-05-24T15:48:49;;;;27.00
70969;BMP280;58630;43.022;25.100;2023-05-24T15:51:15;;;;27.00
70969;BMP280;58630;43.022;25.100;2023-05-24T15:53:40;;;;27.10
70969;BMP280;58630;43.022;25.100;2023-05-24T15:56:06;;;;27.10
70969;BMP280;58630;43.022;25.100;2023-05-24T15:58:31;;;;27.10
70969;BMP280;58630;43.022;25.100;2023-05-24T16:00:57;;;;27.10